首页
METAR-TAF:

METAR-TAF

机场 :

拉罗汤加国际机场

拉罗汤加岛, 库克群岛

纬度: 21-12S, 经度: 159-49W, 海拔: 7米

当前天气观测

该预报发布于18分钟前的02:00 UTC
风速9节,风向东转东南
温度 24°C
湿度 69%
气压 1015 hPa
能见度10公里或以上
多云层高于2300英尺

METAR: NCRG 210200Z 11009KT 9999 BKN023 24/18 Q1015

时间: 16:18 (02:18 UTC)

预报

该预报发布于3小时和14分钟前的23:04 UTC
预报有效从21日的 00点(UTC)到 21日的 24点(UTC)
风速8节,风向东转东南
能见度10公里或以上
散云层高于1800英尺
多云层高于10000英尺
几率 40% :
短暂存在
从 21日的 00点(UTC)到 21日的 06点(UTC)
能見度: 5000
多云层高于1500英尺
阵雨

TAF: NCRG 202304Z 2100/2124 12008KT 9999 SCT018 BKN100 PROB40 TEMPO 2100/2106 5000 SHRA BKN015

超过4000个机场的气象观测和天气预报(METAR&TAF报告)。

可查询的气象台以黄色和红色小点在地图上表示。

将鼠标移到小点上方,可查看气象台名称。

然后点击查看天气观测和预报。

如需切换地图:点击带黑十字的绿色按钮放大地图;点击带横线的绿色按钮缩小地图;或者点击绿色箭头查看邻近地区的地图。


METAR-TAF: